Time;durP1;ratioP1;P1;durP2;ratioP2;P2;SDS_P1;SDS_P2;PMS_P1;PMS_P2;Temp;Humidity;BMP_temperature;BMP_pressure;BME280_temperature;BME280_humidity;BME280_pressure;Samples;Min_cycle;Max_cycle;Signal;HPM_P1;HPM_P2
2022/06/10 00:00:43;;;;;;;9.88;8.15;;;;;;;18.47;100.00;98069.70;1741557;80;28154;-88
2022/06/10 00:03:13;;;;;;;9.30;8.33;;;;;;;18.37;100.00;98068.05;1739798;80;28125;-91
2022/06/10 00:05:55;;;;;;;10.58;8.58;;;;;;;18.39;100.00;98071.84;1741281;80;28098;-90
2022/06/10 00:08:25;;;;;;;14.05;8.85;;;;;;;18.37;100.00;98073.34;1739301;81;28183;-91
2022/06/10 00:11:00;;;;;;;10.70;8.50;;;;;;;18.35;100.00;98079.80;1739386;81;28068;-88
2022/06/10 00:13:32;;;;;;;10.18;9.08;;;;;;;18.45;100.00;98080.45;1741313;80;28104;-90
2022/06/10 00:16:02;;;;;;;;;;;;;;;18.51;100.00;98088.24;1748404;80;28060;-90
2022/06/10 00:18:30;;;;;;;12.55;10.10;;;;;;;18.52;100.00;98089.91;1741057;80;24431;-90
2022/06/10 00:21:06;;;;;;;11.45;10.25;;;;;;;18.56;100.00;98089.92;1742093;80;28083;-88
2022/06/10 00:23:33;;;;;;;11.08;9.28;;;;;;;18.53;100.00;98093.72;1741831;80;28085;-91
2022/06/10 00:26:02;;;;;;;11.22;9.50;;;;;;;18.54;100.00;98086.61;1740742;82;28084;-91
2022/06/10 00:28:30;;;;;;;10.85;8.90;;;;;;;18.54;100.00;98087.47;1740054;81;28137;-90
2022/06/10 00:30:56;;;;;;;12.40;9.48;;;;;;;18.55;100.00;98085.62;1741358;81;28021;-90
2022/06/10 00:33:23;;;;;;;11.95;10.10;;;;;;;18.59;100.00;98086.47;1739920;81;28103;-89
2022/06/10 00:35:51;;;;;;;14.00;11.05;;;;;;;18.65;100.00;98086.30;1731275;80;28078;-88
2022/06/10 00:38:19;;;;;;;13.70;9.78;;;;;;;18.66;100.00;98083.47;1740377;81;28090;-88
2022/06/10 00:40:53;;;;;;;12.35;10.40;;;;;;;18.62;100.00;98089.27;1742292;80;28028;-88
2022/06/10 00:43:24;;;;;;;12.43;10.30;;;;;;;18.61;100.00;98089.77;1735838;80;28133;-89
2022/06/10 00:45:57;;;;;;;13.95;10.30;;;;;;;18.64;100.00;98090.77;1740110;81;28088;-91
2022/06/10 00:48:33;;;;;;;11.88;10.55;;;;;;;18.64;100.00;98097.41;1740160;81;28116;-91
2022/06/10 00:51:03;;;;;;;12.47;10.30;;;;;;;18.63;100.00;98100.20;1740170;81;28164;-88
2022/06/10 00:53:35;;;;;;;13.95;10.43;;;;;;;18.58;100.00;98098.55;1731090;80;28064;-87
2022/06/10 00:56:18;;;;;;;10.90;9.75;;;;;;;18.54;100.00;98106.48;1740473;81;28089;-87
2022/06/10 00:58:45;;;;;;;14.68;11.15;;;;;;;18.48;100.00;98105.31;1740309;81;28074;-88
2022/06/10 01:01:13;;;;;;;12.45;9.68;;;;;;;18.46;100.00;98107.78;1738341;81;28196;-88
2022/06/10 01:03:54;;;;;;;12.23;8.85;;;;;;;18.42;100.00;98106.47;1740879;80;28166;-91
2022/06/10 01:06:21;;;;;;;12.75;9.88;;;;;;;18.43;100.00;98115.59;1738213;81;28104;-91
2022/06/10 01:08:51;;;;;;;12.43;9.83;;;;;;;18.43;100.00;98115.59;1740689;80;28062;-87
2022/06/10 01:11:30;;;;;;;11.28;8.98;;;;;;;18.40;100.00;98115.89;1741172;80;28079;-87
2022/06/10 01:14:32;;;;;;;12.23;9.10;;;;;;;18.40;100.00;98112.75;1739682;80;28173;-88
2022/06/10 01:17:23;;;;;;;13.90;10.53;;;;;;;18.36;100.00;98114.58;1740958;80;28015;-87
2022/06/10 01:20:04;;;;;;;18.73;11.30;;;;;;;18.31;100.00;98115.07;1741240;81;28207;-88
2022/06/10 01:23:04;;;;;;;10.03;8.30;;;;;;;18.30;100.00;98113.90;1740229;81;28082;-91
2022/06/10 01:25:47;;;;;;;16.42;10.82;;;;;;;18.28;100.00;98115.38;1738477;81;28108;-91
2022/06/10 01:28:29;;;;;;;14.70;11.48;;;;;;;18.25;100.00;98120.19;1739978;81;28151;-90
2022/06/10 01:30:59;;;;;;;16.90;11.28;;;;;;;18.22;100.00;98123.17;1741219;80;28143;-89
2022/06/10 01:33:41;;;;;;;15.08;11.80;;;;;;;18.21;100.00;98121.02;1741029;81;28078;-90
2022/06/10 01:36:28;;;;;;;16.27;11.45;;;;;;;18.20;100.00;98125.14;1686785;83;28006;-90
2022/06/10 01:39:31;;;;;;;19.52;12.35;;;;;;;18.15;100.00;98119.02;1706514;82;28143;-88
2022/06/10 01:42:01;;;;;;;16.15;12.65;;;;;;;18.12;100.00;98129.08;1705426;82;28089;-88
2022/06/10 01:44:51;;;;;;;16.42;12.20;;;;;;;18.09;100.00;98130.74;1703678;82;28118;-88
2022/06/10 01:47:24;;;;;;;14.35;11.03;;;;;;;18.05;100.00;98137.36;1702910;83;28095;-87
2022/06/10 01:50:08;;;;;;;14.40;10.88;;;;;;;18.01;100.00;98139.97;1697588;83;28162;-87
2022/06/10 01:52:58;;;;;;;13.25;10.65;;;;;;;18.05;100.00;98141.34;1705726;82;28134;-88
2022/06/10 01:55:52;;;;;;;15.08;10.85;;;;;;;18.08;100.00;98143.64;1722970;81;28173;-88
2022/06/10 01:58:26;;;;;;;15.30;10.55;;;;;;;18.07;100.00;98144.62;1720342;82;28116;-88
2022/06/10 02:01:20;;;;;;;12.90;10.25;;;;;;;18.13;100.00;98142.66;1720124;82;28090;-87
2022/06/10 02:04:05;;;;;;;13.00;9.53;;;;;;;18.15;100.00;98151.29;1718033;82;28099;-87
2022/06/10 02:06:38;;;;;;;13.15;10.05;;;;;;;18.14;100.00;98158.89;1722451;82;28133;-87
2022/06/10 02:09:12;;;;;;;13.15;8.70;;;;;;;18.21;100.00;98163.89;1719563;82;28055;-87
2022/06/10 02:11:48;;;;;;;11.28;8.83;;;;;;;18.23;100.00;98160.56;1716891;82;28006;-88
2022/06/10 02:14:17;;;;;;;11.65;8.05;;;;;;;18.24;100.00;98165.71;1722857;82;28129;-89
2022/06/10 02:16:58;;;;;;;9.55;8.20;;;;;;;18.22;100.00;98167.68;1720991;82;28053;-89
2022/06/10 02:19:37;;;;;;;10.30;7.83;;;;;;;18.18;100.00;98178.77;1727814;82;33854;-89
2022/06/10 02:22:25;;;;;;;9.18;7.65;;;;;;;18.09;100.00;98175.77;1723609;82;28075;-89
2022/06/10 02:24:56;;;;;;;11.70;8.35;;;;;;;18.03;100.00;98181.20;1666705;85;28090;-89
2022/06/10 02:27:26;;;;;;;9.87;8.37;;;;;;;18.00;100.00;98186.84;1665630;85;28084;-89
2022/06/10 02:30:01;;;;;;;13.70;8.65;;;;;;;17.97;100.00;98187.97;1727520;81;35014;-88
2022/06/10 02:32:30;;;;;;;10.90;8.18;;;;;;;17.94;100.00;98191.45;1721488;81;28138;-89
2022/06/10 02:34:57;;;;;;;12.37;9.55;;;;;;;17.89;100.00;98190.57;1719585;82;28013;-89
2022/06/10 02:37:30;;;;;;;15.00;9.05;;;;;;;17.86;100.00;98192.72;1726014;82;28115;-89
2022/06/10 02:40:03;;;;;;;13.83;9.38;;;;;;;17.79;100.00;98192.52;1721560;81;28119;-90
2022/06/10 02:42:52;;;;;;;11.50;9.30;;;;;;;17.76;100.00;98194.66;1720942;81;28092;-89
2022/06/10 02:45:28;;;;;;;12.85;8.70;;;;;;;17.75;100.00;98196.47;1722090;82;28047;-89
2022/06/10 02:47:57;;;;;;;13.05;8.68;;;;;;;17.77;100.00;98206.42;1727196;82;28017;-89
2022/06/10 02:50:26;;;;;;;13.43;9.05;;;;;;;17.73;100.00;98205.05;1729510;81;28018;-89
2022/06/10 02:52:53;;;;;;;12.05;9.28;;;;;;;17.74;100.00;98209.86;1738964;80;28059;-89
2022/06/10 02:55:25;;;;;;;15.95;10.53;;;;;;;17.72;100.00;98215.82;1735377;81;28166;-86
2022/06/10 03:01:13;;;;;;;14.80;8.78;;;;;;;17.76;100.00;98214.52;1740316;80;28066;-89
2022/06/10 03:03:57;;;;;;;14.30;9.65;;;;;;;17.76;100.00;98216.67;1731338;80;28153;-89
2022/06/10 03:06:47;;;;;;;13.80;9.75;;;;;;;17.70;100.00;98220.43;1736545;80;28173;-88
2022/06/10 03:09:49;;;;;;;13.62;10.38;;;;;;;17.69;100.00;98218.77;1741249;80;28468;-90
2022/06/10 03:12:24;;;;;;;11.33;9.75;;;;;;;17.67;100.00;98223.41;1737662;80;28072;-90
2022/06/10 03:15:15;;;;;;;12.75;9.35;;;;;;;17.62;100.00;98224.38;1743443;80;28109;-88
2022/06/10 03:18:06;;;;;;;12.50;10.45;;;;;;;17.66;100.00;98229.19;1739543;80;28069;-88
2022/06/10 03:21:00;;;;;;;12.30;9.58;;;;;;;17.67;100.00;98230.02;1739469;81;28088;-88
2022/06/10 03:23:39;;;;;;;15.08;9.83;;;;;;;17.61;100.00;98233.29;1738968;80;28108;-88
2022/06/10 03:26:15;;;;;;;12.82;8.10;;;;;;;17.59;100.00;98237.38;1734868;80;28066;-86
2022/06/10 03:28:53;;;;;;;10.95;8.10;;;;;;;17.62;100.00;98244.22;1733198;80;28070;-86
2022/06/10 03:31:26;;;;;;;11.78;7.87;;;;;;;17.64;100.00;98245.70;1735729;80;28144;-86
2022/06/10 03:34:14;;;;;;;9.48;7.15;;;;;;;17.66;100.00;98249.04;1736687;80;28064;-90
2022/06/10 03:36:42;;;;;;;10.95;7.58;;;;;;;17.65;100.00;98248.70;1740822;81;28102;-86
2022/06/10 03:39:10;;;;;;;11.78;7.45;;;;;;;17.64;100.00;98256.30;1736456;80;28060;-86
2022/06/10 03:41:57;;;;;;;9.33;6.15;;;;;;;17.59;100.00;98258.55;1714705;82;28108;-90
2022/06/10 03:44:25;;;;;;;8.78;5.80;;;;;;;17.60;100.00;98262.89;1714426;82;28067;-90
2022/06/10 03:46:53;;;;;;;8.53;5.42;;;;;;;17.64;100.00;98266.05;1720585;82;28083;-86
2022/06/10 03:49:47;;;;;;;7.90;5.58;;;;;;;17.64;100.00;98267.37;1718828;82;28107;-86
2022/06/10 03:52:23;;;;;;;8.08;5.25;;;;;;;17.62;100.00;98275.97;1711595;81;28081;-87
2022/06/10 03:54:49;;;;;;;7.55;5.50;;;;;;;17.58;100.00;98276.72;1714123;82;28303;-88
2022/06/10 03:57:17;;;;;;;7.95;5.55;;;;;;;17.57;100.00;98273.73;1713089;82;28099;-89
2022/06/10 03:59:53;;;;;;;7.47;5.20;;;;;;;17.62;100.00;98281.27;1712721;82;28072;-88
2022/06/10 04:02:19;;;;;;;6.40;5.15;;;;;;;17.65;100.00;98283.59;1713776;82;28069;-89
2022/06/10 04:04:51;;;;;;;6.08;5.47;;;;;;;17.62;100.00;98289.20;1714935;82;28190;-89
2022/06/10 04:07:22;;;;;;;5.92;5.42;;;;;;;17.62;100.00;98291.33;1714388;83;28056;-88
2022/06/10 04:09:48;;;;;;;6.50;4.92;;;;;;;17.68;100.00;98296.02;1714677;82;28084;-88
2022/06/10 04:12:15;;;;;;;9.18;5.78;;;;;;;17.69;100.00;98291.55;1714016;83;28026;-88
2022/06/10 04:14:42;;;;;;;7.67;5.15;;;;;;;17.66;100.00;98297.17;1714098;82;28096;-88
2022/06/10 04:17:11;;;;;;;6.22;5.50;;;;;;;17.67;100.00;98299.67;1711539;82;28051;-88
2022/06/10 04:19:39;;;;;;;5.45;4.90;;;;;;;17.73;100.00;98302.98;1714399;82;28159;-88
2022/06/10 04:22:07;;;;;;;5.95;4.78;;;;;;;17.75;100.00;98305.00;1640746;84;28093;-88
2022/06/10 04:24:36;;;;;;;11.43;5.33;;;;;;;17.74;100.00;98303.83;1714440;82;28166;-87
2022/06/10 04:27:04;;;;;;;6.00;5.37;;;;;;;17.75;100.00;98322.20;1712941;82;28060;-87
2022/06/10 04:29:30;;;;;;;7.10;6.05;;;;;;;17.71;100.00;98320.86;1712554;82;28098;-88
2022/06/10 04:31:56;;;;;;;5.05;4.33;;;;;;;17.71;100.00;98319.54;1713850;82;28109;-89
2022/06/10 04:34:24;;;;;;;7.20;5.28;;;;;;;17.72;100.00;98323.86;1713570;83;28474;-90
2022/06/10 04:36:50;;;;;;;7.83;5.17;;;;;;;17.71;100.00;98323.52;1714575;82;28092;-90
2022/06/10 04:39:23;;;;;;;7.30;5.60;;;;;;;17.68;100.00;98326.45;1714185;82;43099;-88
2022/06/10 04:41:49;;;;;;;8.30;5.58;;;;;;;17.71;100.00;98325.32;1712466;82;28048;-90
2022/06/10 04:44:15;;;;;;;7.05;5.65;;;;;;;17.71;100.00;98326.16;1713540;82;28175;-88
2022/06/10 04:46:43;;;;;;;9.13;5.60;;;;;;;17.72;100.00;98326.99;1714804;82;28076;-87
2022/06/10 04:49:20;;;;;;;7.10;5.05;;;;;;;17.65;100.00;98329.42;1712983;82;28116;-88
2022/06/10 04:51:46;;;;;;;6.30;5.35;;;;;;;17.55;100.00;98334.77;1694717;82;28093;-88
2022/06/10 04:54:15;;;;;;;9.88;5.50;;;;;;;17.55;100.00;98334.77;1721757;82;28061;-88
2022/06/10 04:56:41;;;;;;;8.03;5.78;;;;;;;17.56;100.00;98336.94;1720554;82;28113;-87
2022/06/10 04:59:07;;;;;;;8.58;5.85;;;;;;;17.57;100.00;98338.08;1728907;81;28125;-87
2022/06/10 05:01:37;;;;;;;9.60;5.80;;;;;;;17.61;100.00;98341.30;1726693;82;28143;-87
2022/06/10 05:04:03;;;;;;;6.65;5.40;;;;;;;17.63;100.00;98346.42;1722329;82;28089;-90
2022/06/10 05:06:29;;;;;;;6.85;5.75;;;;;;;17.61;100.00;98356.34;1722800;82;28082;-91
2022/06/10 05:08:56;;;;;;;10.48;7.00;;;;;;;17.57;100.00;98354.45;1722785;82;28159;-90
2022/06/10 05:11:25;;;;;;;8.80;6.20;;;;;;;17.56;100.00;98356.78;1727750;81;28132;-90
2022/06/10 05:13:58;;;;;;;9.30;6.60;;;;;;;17.58;100.00;98365.38;1727638;82;28121;-86
2022/06/10 05:16:28;;;;;;;9.38;6.22;;;;;;;17.64;100.00;98367.45;1723064;82;28189;-89
2022/06/10 05:18:54;;;;;;;10.35;7.33;;;;;;;17.70;100.00;98372.13;1722602;82;28073;-88
2022/06/10 05:21:23;;;;;;;12.00;7.37;;;;;;;17.72;100.00;98377.28;1720255;81;28247;-88
2022/06/10 05:23:55;;;;;;;9.78;7.05;;;;;;;17.65;100.00;98373.58;1715941;82;28128;-88
2022/06/10 05:26:21;;;;;;;13.68;7.95;;;;;;;17.62;100.00;98372.57;1716541;81;28080;-88
2022/06/10 05:28:50;;;;;;;11.68;8.55;;;;;;;17.54;100.00;98377.27;1724647;82;28003;-88
2022/06/10 05:31:19;;;;;;;12.20;7.92;;;;;;;17.56;100.00;98381.92;1720911;82;28061;-87
2022/06/10 05:36:30;;;;;;;11.73;8.15;;;;;;;17.55;100.00;98386.38;1718366;82;28212;-86
2022/06/10 05:39:06;;;;;;;15.95;8.85;;;;;;;17.52;100.00;98390.63;1716987;82;28039;-88
2022/06/10 05:44:20;;;;;;;14.38;9.23;;;;;;;17.56;100.00;98403.09;1719828;82;28108;-86
2022/06/10 05:46:46;;;;;;;12.98;8.88;;;;;;;17.55;100.00;98409.36;1727022;82;28101;-86
2022/06/10 05:49:13;;;;;;;14.80;9.05;;;;;;;17.54;100.00;98415.63;1725967;82;28144;-90
2022/06/10 05:51:39;;;;;;;13.60;9.35;;;;;;;17.47;100.00;98418.04;1733537;81;28101;-89
2022/06/10 05:54:07;;;;;;;16.32;10.35;;;;;;;17.46;100.00;98421.66;1739628;80;28074;-87
2022/06/10 05:56:33;;;;;;;15.13;10.25;;;;;;;17.50;100.00;98424.86;1740311;80;28141;-87
2022/06/10 05:58:59;;;;;;;16.05;9.98;;;;;;;17.49;100.00;98427.16;1738992;80;28124;-87
2022/06/10 06:01:26;;;;;;;15.45;9.20;;;;;;;17.49;100.00;98431.97;1740255;80;28004;-88
2022/06/10 06:03:52;;;;;;;15.10;10.30;;;;;;;17.53;100.00;98429.84;1737621;80;28066;-88
2022/06/10 06:06:20;;;;;;;18.12;11.35;;;;;;;17.55;100.00;98430.05;1740125;80;28002;-86
2022/06/10 06:09:01;;;;;;;15.83;10.45;;;;;;;17.56;100.00;98433.52;1741463;81;28158;-86
2022/06/10 06:11:27;;;;;;;19.32;11.95;;;;;;;17.59;100.00;98431.88;1737394;81;28026;-87
2022/06/10 06:13:53;;;;;;;17.90;10.53;;;;;;;17.56;100.00;98433.52;1738417;81;28076;-87
2022/06/10 06:16:19;;;;;;;18.42;11.12;;;;;;;17.48;100.00;98434.27;1737248;80;43496;-87
2022/06/10 06:18:48;;;;;;;16.32;11.10;;;;;;;17.54;100.00;98442.92;1740651;80;28137;-87
2022/06/10 06:21:14;;;;;;;18.77;11.38;;;;;;;17.53;100.00;98437.28;1740761;80;28078;-87
2022/06/10 06:23:41;;;;;;;18.12;10.95;;;;;;;17.51;100.00;98438.44;1738263;80;28100;-90
2022/06/10 06:26:12;;;;;;;16.37;11.08;;;;;;;17.50;100.00;98446.03;1735254;81;28070;-87
2022/06/10 06:28:38;;;;;;;21.77;12.30;;;;;;;17.48;100.00;98444.02;1740846;80;28129;-87
2022/06/10 06:31:05;;;;;;;18.30;11.43;;;;;;;17.42;100.00;98445.93;1737741;81;46433;-88
2022/06/10 06:33:31;;;;;;;16.95;11.73;;;;;;;17.43;100.00;98450.25;1741454;81;28212;-89
2022/06/10 06:36:07;;;;;;;15.43;11.05;;;;;;;17.43;100.00;98448.44;1738797;81;28088;-86
2022/06/10 06:38:33;;;;;;;17.85;11.75;;;;;;;17.51;100.00;98447.70;1737740;80;28096;-88
2022/06/10 06:41:09;;;;;;;18.65;12.00;;;;;;;17.57;100.00;98458.98;1740601;82;28025;-88
2022/06/10 06:43:36;;;;;;;17.73;10.88;;;;;;;17.58;100.00;98456.19;1740001;81;28183;-86
2022/06/10 06:46:03;;;;;;;19.48;10.55;;;;;;;17.60;100.00;98461.86;1738827;80;28079;-86
2022/06/10 06:48:29;;;;;;;18.67;11.28;;;;;;;17.64;100.00;98462.73;1743077;80;28120;-88
2022/06/10 06:50:56;;;;;;;16.23;10.50;;;;;;;17.70;100.00;98466.59;1737412;80;28064;-86
2022/06/10 06:56:23;;;;;;;14.55;10.35;;;;;;;17.72;100.00;98473.90;1720241;82;28119;-87
2022/06/10 06:58:53;;;;;;;16.80;10.55;;;;;;;17.73;100.00;98476.89;1721102;83;28063;-88
2022/06/10 07:01:22;;;;;;;15.23;10.72;;;;;;;17.71;100.00;98480.17;1718628;82;28107;-86
2022/06/10 07:03:51;;;;;;;19.17;10.88;;;;;;;17.71;100.00;98482.33;1719506;81;28107;-86
2022/06/10 07:06:19;;;;;;;22.48;12.78;;;;;;;17.69;100.00;98488.73;1718826;82;28092;-86
2022/06/10 07:08:45;;;;;;;18.05;11.57;;;;;;;17.69;100.00;98486.09;1720297;81;28568;-88
2022/06/10 07:11:11;;;;;;;21.35;12.58;;;;;;;17.69;100.00;98490.06;1720630;82;28084;-86
2022/06/10 07:13:38;;;;;;;20.88;13.30;;;;;;;17.63;100.00;98488.02;1722030;82;28100;-87
2022/06/10 07:16:07;;;;;;;22.10;12.53;;;;;;;17.62;100.00;98492.47;1721598;82;28064;-90
2022/06/10 07:18:33;;;;;;;18.02;13.65;;;;;;;17.62;100.00;98495.64;1700553;82;28088;-90
2022/06/10 07:21:00;;;;;;;17.77;12.13;;;;;;;17.61;100.00;98492.64;1721897;82;27993;-90
2022/06/10 07:23:27;;;;;;;19.98;12.65;;;;;;;17.60;100.00;98497.59;1721411;81;28028;-90
2022/06/10 07:25:54;;;;;;;17.67;12.88;;;;;;;17.55;100.00;98496.69;1717770;82;28149;-90
2022/06/10 07:28:21;;;;;;;16.65;12.20;;;;;;;17.58;100.00;98496.38;1719178;81;28084;-90
2022/06/10 07:30:49;;;;;;;16.97;12.43;;;;;;;17.57;100.00;98496.86;1718070;82;28172;-91
2022/06/10 07:33:16;;;;;;;15.78;12.15;;;;;;;17.55;100.00;98496.20;1717269;82;28092;-90
2022/06/10 07:35:43;;;;;;;18.62;13.78;;;;;;;17.56;100.00;98499.68;1718979;82;28078;-90
2022/06/10 07:38:10;;;;;;;19.00;13.58;;;;;;;17.48;100.00;98503.06;1721328;82;28024;-88
2022/06/10 07:43:25;;;;;;;19.00;12.63;;;;;;;17.41;100.00;98505.11;1720483;82;28090;-86
2022/06/10 07:45:52;;;;;;;21.30;14.05;;;;;;;17.47;100.00;98508.49;1720496;82;28088;-86
2022/06/10 07:48:22;;;;;;;17.67;13.45;;;;;;;17.56;100.00;98510.27;1720254;82;28130;-86
2022/06/10 07:50:49;;;;;;;15.72;11.95;;;;;;;17.61;100.00;98512.49;1720948;82;28107;-86
2022/06/10 07:53:19;;;;;;;18.30;12.88;;;;;;;17.63;100.00;98518.45;1719439;83;28028;-86
2022/06/10 07:55:46;;;;;;;19.05;14.33;;;;;;;17.56;100.00;98511.07;1701733;82;28060;-86
2022/06/10 07:58:14;;;;;;;20.00;13.85;;;;;;;17.55;100.00;98513.89;1688699;83;28063;-88
2022/06/10 08:00:44;;;;;;;18.87;13.38;;;;;;;17.51;100.00;98515.98;1690969;83;28096;-88
2022/06/10 08:03:12;;;;;;;18.48;12.78;;;;;;;17.49;100.00;98514.48;1694419;83;28087;-86
2022/06/10 08:05:38;;;;;;;18.80;12.53;;;;;;;17.52;100.00;98518.14;1696926;83;27997;-86
2022/06/10 08:08:05;;;;;;;19.45;13.38;;;;;;;17.60;100.00;98529.34;1696629;83;28077;-86
2022/06/10 08:10:34;;;;;;;19.30;13.20;;;;;;;17.63;100.00;98526.39;1695787;83;28157;-91
2022/06/10 08:13:00;;;;;;;17.87;12.53;;;;;;;17.64;100.00;98524.09;1690516;83;28079;-89
2022/06/10 08:15:28;;;;;;;16.87;12.50;;;;;;;17.65;100.00;98524.44;1690874;83;28035;-90
2022/06/10 08:17:59;;;;;;;18.62;13.05;;;;;;;17.68;100.00;98530.25;1684598;83;28075;-90
2022/06/10 08:22:32;;;;;;;21.95;14.05;;;;;;;17.72;100.00;98532.97;1686335;83;28095;-90
2022/06/10 08:22:54;;;;;;;;;;;;;;;17.75;100.00;98535.30;1699064;83;28099;-90
2022/06/10 08:25:23;;;;;;;20.72;13.08;;;;;;;17.80;100.00;98539.66;1682269;83;48020;-88
2022/06/10 08:27:53;;;;;;;18.27;13.40;;;;;;;17.79;100.00;98537.98;1691964;83;28202;-90
2022/06/10 08:30:19;;;;;;;19.90;13.25;;;;;;;17.80;100.00;98538.82;1685854;83;28085;-88
2022/06/10 08:32:45;;;;;;;18.77;13.75;;;;;;;17.78;100.00;98541.61;1687677;83;27997;-87
2022/06/10 08:35:13;;;;;;;17.37;12.88;;;;;;;17.82;100.00;98541.67;1685364;83;28079;-86
2022/06/10 08:37:39;;;;;;;18.48;12.90;;;;;;;17.81;100.00;98547.11;1683815;83;28103;-88
2022/06/10 08:40:07;;;;;;;18.15;13.35;;;;;;;17.83;100.00;98547.31;1688443;83;28107;-88
2022/06/10 08:42:40;;;;;;;18.02;11.97;;;;;;;17.83;100.00;98549.96;1689856;83;28069;-87
2022/06/10 08:45:13;;;;;;;17.05;12.23;;;;;;;17.74;100.00;98556.12;1696249;83;28016;-87
2022/06/10 08:48:03;;;;;;;17.87;13.43;;;;;;;17.67;100.00;98552.44;1684234;83;28142;-88
2022/06/10 08:50:50;;;;;;;17.65;13.25;;;;;;;17.69;100.00;98558.39;1692542;83;28071;-88
2022/06/10 08:53:36;;;;;;;17.85;13.32;;;;;;;17.71;100.00;98563.55;1682497;83;28010;-88
2022/06/10 08:56:23;;;;;;;17.70;13.03;;;;;;;17.76;100.00;98566.58;1700332;83;28080;-88
2022/06/10 08:59:12;;;;;;;17.12;12.20;;;;;;;17.85;100.00;98572.30;1711239;82;28136;-88
2022/06/10 09:01:55;;;;;;;14.53;11.93;;;;;;;17.75;100.00;98570.20;1708185;83;28056;-86
2022/06/10 09:04:27;;;;;;;18.70;13.13;;;;;;;17.73;100.00;98579.61;1711493;82;28126;-86
2022/06/10 09:06:56;;;;;;;13.80;11.65;;;;;;;17.77;100.00;98586.30;1711475;82;28154;-86
2022/06/10 09:09:26;;;;;;;16.50;12.37;;;;;;;17.79;100.00;98582.16;1684473;83;28088;-86
2022/06/10 09:12:09;;;;;;;16.80;13.25;;;;;;;17.85;100.00;98584.20;1709198;82;28072;-86
2022/06/10 09:14:35;;;;;;;15.75;12.50;;;;;;;17.88;100.00;98590.55;1709426;82;28064;-86
2022/06/10 09:17:17;;;;;;;16.00;12.40;;;;;;;17.84;100.00;98587.34;1712930;83;28064;-90
2022/06/10 09:19:51;;;;;;;16.17;12.55;;;;;;;17.81;100.00;98585.01;1709701;82;28127;-88
2022/06/10 09:22:22;;;;;;;13.35;11.48;;;;;;;17.81;100.00;98592.95;1710775;83;28099;-88
2022/06/10 09:24:55;;;;;;;17.37;12.70;;;;;;;17.81;100.00;98586.33;1710441;82;28098;-86
2022/06/10 09:27:31;;;;;;;13.80;10.38;;;;;;;17.88;100.00;98589.22;1710029;82;28057;-86
2022/06/10 09:30:02;;;;;;;14.10;11.33;;;;;;;17.91;100.00;98588.42;1708791;82;28133;-90
2022/06/10 09:32:39;;;;;;;14.60;10.80;;;;;;;17.97;100.00;98585.67;1713289;82;28076;-86
2022/06/10 09:35:18;;;;;;;14.40;11.00;;;;;;;18.02;100.00;98583.89;1710342;82;28079;-90
2022/06/10 09:37:53;;;;;;;15.10;11.20;;;;;;;18.09;100.00;98585.80;1681784;84;28204;-90
2022/06/10 09:40:41;;;;;;;12.82;10.93;;;;;;;18.23;100.00;98589.23;1709400;82;28093;-90
2022/06/10 09:43:23;;;;;;;13.15;10.23;;;;;;;18.34;100.00;98590.33;1714003;82;28017;-88
2022/06/10 09:46:07;;;;;;;;;;;;;;;18.41;100.00;98594.53;1717499;82;28029;-88
2022/06/10 09:48:49;;;;;;;12.82;10.72;;;;;;;18.48;100.00;98595.60;1713783;82;22050;-88
2022/06/10 09:51:28;;;;;;;13.95;10.40;;;;;;;18.55;100.00;98597.16;1710696;82;28090;-88
2022/06/10 09:54:03;;;;;;;12.82;10.18;;;;;;;18.54;100.00;98595.02;1711084;83;28204;-88
2022/06/10 09:56:50;;;;;;;14.03;10.85;;;;;;;18.58;100.00;98601.67;1677270;83;28119;-86
2022/06/10 09:59:49;;;;;;;13.70;10.08;;;;;;;18.56;100.00;98595.69;1686446;83;28179;-85
2022/06/10 10:02:39;;;;;;;11.12;8.45;;;;;;;18.56;100.00;98595.69;1685213;83;28477;-88
2022/06/10 10:05:46;;;;;;;10.80;9.28;;;;;;;18.55;100.00;98600.64;1695879;83;27986;-88
2022/06/10 10:08:41;;;;;;;10.00;8.98;;;;;;;18.48;100.00;98604.88;1662176;85;28066;-88
2022/06/10 10:11:35;;;;;;;10.48;8.40;;;;;;;18.52;100.00;98599.60;1653490;85;28184;-88
2022/06/10 10:14:28;;;;;;;7.90;7.00;;;;;;;18.59;100.00;98609.14;1620455;86;28143;-88
2022/06/10 10:17:33;;;;;;;12.47;9.43;;;;;;;18.62;100.00;98597.72;1651362;85;28097;-87
2022/06/10 10:20:15;;;;;;;9.70;8.33;;;;;;;18.72;100.00;98608.23;1655435;84;28104;-86
2022/06/10 10:23:12;;;;;;;9.13;8.20;;;;;;;18.78;100.00;98607.13;1693441;83;28117;-90
2022/06/10 10:25:40;;;;;;;11.73;9.23;;;;;;;18.78;100.00;98609.78;1694698;83;28049;-87
2022/06/10 10:28:19;;;;;;;10.03;7.05;;;;;;;18.84;100.00;98611.47;1686740;83;28104;-87
2022/06/10 10:31:01;;;;;;;9.75;8.63;;;;;;;18.91;100.00;98605.90;1692111;82;27997;-87
2022/06/10 10:33:28;;;;;;;9.20;8.28;;;;;;;18.83;100.00;98610.64;1691017;83;28001;-86
2022/06/10 10:35:57;;;;;;;9.83;8.68;;;;;;;18.85;100.00;98607.84;1692384;83;28094;-85
2022/06/10 10:38:41;;;;;;;9.70;8.13;;;;;;;18.91;100.00;98602.75;1694631;83;28089;-88
2022/06/10 10:41:20;;;;;;;16.15;9.45;;;;;;;19.05;100.00;98601.34;1693118;83;28575;-90
2022/06/10 10:43:50;;;;;;;9.40;8.40;;;;;;;19.06;100.00;98606.98;1690320;83;28075;-87
2022/06/10 10:46:42;;;;;;;10.20;8.50;;;;;;;19.00;100.00;98606.28;1684340;83;28104;-89
2022/06/10 10:49:21;;;;;;;11.50;7.95;;;;;;;18.98;100.00;98609.11;1660332;84;28064;-90
2022/06/10 10:51:50;;;;;;;10.72;7.65;;;;;;;18.93;100.00;98613.22;1691320;82;28054;-90
2022/06/10 10:54:30;;;;;;;6.50;5.62;;;;;;;18.99;100.00;98612.56;1679385;83;28033;-90
2022/06/10 10:56:58;;;;;;;9.68;7.87;;;;;;;19.06;100.00;98609.64;1716444;82;28174;-86
2022/06/10 10:59:37;;;;;;;8.50;7.22;;;;;;;19.24;100.00;98610.42;1719431;81;28052;-90
2022/06/10 11:02:32;;;;;;;8.20;7.35;;;;;;;19.37;100.00;98616.61;1721323;82;28076;-90
2022/06/10 11:05:12;;;;;;;7.40;6.62;;;;;;;19.45;100.00;98612.72;1718250;81;20214;-87
2022/06/10 11:07:38;;;;;;;9.50;7.08;;;;;;;19.54;100.00;98607.77;1717001;81;28032;-87
2022/06/10 11:10:08;;;;;;;7.70;6.90;;;;;;;19.44;100.00;98611.84;1719993;81;28127;-87
2022/06/10 11:12:39;;;;;;;10.25;8.00;;;;;;;19.42;100.00;98615.66;1719441;81;28118;-87
2022/06/10 11:15:07;;;;;;;8.80;7.95;;;;;;;19.46;100.00;98619.20;1721477;81;28095;-87
2022/06/10 11:17:40;;;;;;;9.25;7.45;;;;;;;19.48;100.00;98616.36;1718431;82;28162;-87
2022/06/10 11:20:19;;;;;;;9.50;7.70;;;;;;;19.51;100.00;98616.90;1719994;82;28156;-87
2022/06/10 11:22:54;;;;;;;;;;;;;;;19.69;100.00;98615.48;1725948;81;28125;-87
2022/06/10 11:25:24;;;;;;;8.53;7.12;;;;;;;19.82;100.00;98613.69;1722041;81;25957;-90
2022/06/10 11:28:00;;;;;;;8.90;6.85;;;;;;;19.90;100.00;98613.73;1716814;82;28001;-90
2022/06/10 11:30:41;;;;;;;7.60;6.83;;;;;;;19.82;100.00;98610.53;1718583;81;28170;-87
2022/06/10 11:33:19;;;;;;;7.17;5.72;;;;;;;19.87;100.00;98608.72;1721816;82;28087;-86
2022/06/10 11:36:01;;;;;;;8.53;6.25;;;;;;;19.81;100.00;98607.55;1716925;81;28091;-86
2022/06/10 11:38:32;;;;;;;8.80;6.85;;;;;;;19.70;100.00;98607.83;1673565;82;28108;-86
2022/06/10 11:41:25;;;;;;;6.42;5.37;;;;;;;19.76;100.00;98607.69;1717693;82;28083;-86
2022/06/10 11:43:58;;;;;;;5.72;5.20;;;;;;;19.77;100.00;98610.69;1719174;81;28185;-88
2022/06/10 11:46:46;;;;;;;6.80;5.90;;;;;;;19.80;100.00;98610.38;1719347;80;28105;-87
2022/06/10 11:49:15;;;;;;;5.78;4.90;;;;;;;19.84;100.00;98607.73;1719484;82;28072;-88
2022/06/10 11:51:54;;;;;;;6.80;4.70;;;;;;;19.83;100.00;98609.55;1720382;82;28138;-88
2022/06/10 11:54:39;;;;;;;4.83;4.42;;;;;;;19.86;100.00;98604.40;1719439;83;28222;-87
2022/06/10 12:00:07;;;;;;;4.58;4.17;;;;;;;19.78;100.00;98597.25;1699499;83;28087;-90
2022/06/10 12:02:54;;;;;;;5.25;4.00;;;;;;;19.78;100.00;98601.73;1678810;83;28059;-90
2022/06/10 12:05:41;;;;;;;6.05;4.05;;;;;;;19.90;100.00;98603.94;1681732;84;28169;-86